createdAt,value
2023-03-26T00:02:44.292Z,0.10
2023-03-26T00:05:49.511Z,0.10
2023-03-26T00:08:52.882Z,0.10
2023-03-26T00:11:55.692Z,0.10
2023-03-26T00:14:58.079Z,0.10
2023-03-26T00:18:03.301Z,0.30
2023-03-26T00:21:07.830Z,0.10
2023-03-26T00:24:15.416Z,0.17
2023-03-26T00:27:17.887Z,0.13
2023-03-26T00:30:20.455Z,0.10
2023-03-26T00:33:23.504Z,0.17
2023-03-26T00:36:27.138Z,0.10
2023-03-26T00:39:33.720Z,0.10
2023-03-26T00:42:36.487Z,0.17
2023-03-26T00:45:38.790Z,0.10
2023-03-26T00:48:45.811Z,0.00
2023-03-26T00:51:48.453Z,0.10
2023-03-26T00:54:54.541Z,0.00
2023-03-26T00:57:57.442Z,0.10
2023-03-26T01:01:06.657Z,0.00
2023-03-26T01:04:28.426Z,0.00
2023-03-26T01:07:31.661Z,0.00
2023-03-26T01:10:38.796Z,0.10
2023-03-26T01:13:47.684Z,0.10
2023-03-26T01:16:52.182Z,0.17
2023-03-26T01:20:13.239Z,0.10
2023-03-26T01:23:23.623Z,0.10
2023-03-26T01:26:31.919Z,0.10
2023-03-26T01:29:56.559Z,0.10
2023-03-26T01:33:04.928Z,0.08
2023-03-26T01:36:17.007Z,0.10
2023-03-26T01:39:32.824Z,0.20
2023-03-26T01:42:44.110Z,0.10
2023-03-26T01:45:48.029Z,0.10
2023-03-26T01:48:51.711Z,0.08
2023-03-26T01:51:56.530Z,0.32
2023-03-26T01:54:59.690Z,0.40
2023-03-26T01:58:17.943Z,0.17
2023-03-26T02:01:29.602Z,0.10
2023-03-26T02:04:53.858Z,0.10
2023-03-26T02:07:59.232Z,0.20
2023-03-26T02:11:11.438Z,0.20
2023-03-26T02:14:15.409Z,0.20
2023-03-26T02:17:19.214Z,0.20
2023-03-26T02:20:22.536Z,0.10
2023-03-26T02:23:29.746Z,0.10
2023-03-26T02:26:34.062Z,0.30
2023-03-26T02:29:47.766Z,0.20
2023-03-26T02:32:52.383Z,0.20
2023-03-26T02:35:59.657Z,0.30
2023-03-26T02:39:02.211Z,0.10
2023-03-26T02:42:07.736Z,0.03
2023-03-26T02:45:16.167Z,0.10
2023-03-26T02:48:36.890Z,0.22
2023-03-26T02:51:50.864Z,0.20
2023-03-26T02:55:01.008Z,0.10
2023-03-26T02:58:04.008Z,0.00
2023-03-26T03:01:11.222Z,0.10
2023-03-26T03:04:23.990Z,0.17
2023-03-26T03:07:26.499Z,0.10
2023-03-26T03:10:32.767Z,0.30
2023-03-26T03:13:48.372Z,0.10
2023-03-26T03:16:54.508Z,0.20
2023-03-26T03:19:58.046Z,0.00
2023-03-26T03:23:00.668Z,0.20
2023-03-26T03:26:04.023Z,0.20
2023-03-26T03:29:08.975Z,0.10
2023-03-26T03:32:11.478Z,0.10
2023-03-26T03:35:19.796Z,0.20
2023-03-26T03:38:25.431Z,0.20
2023-03-26T03:41:29.866Z,0.20
2023-03-26T03:44:32.478Z,0.23
2023-03-26T03:47:35.982Z,0.20
2023-03-26T03:50:38.565Z,0.35
2023-03-26T03:53:56.110Z,0.60
2023-03-26T03:57:18.938Z,0.60
2023-03-26T04:00:32.429Z,0.50
2023-03-26T04:03:54.867Z,0.43
2023-03-26T04:07:01.142Z,0.30
2023-03-26T04:10:23.671Z,0.50
2023-03-26T04:13:44.691Z,0.10
2023-03-26T04:17:16.209Z,0.40
2023-03-26T04:20:21.021Z,0.40
2023-03-26T04:23:26.706Z,0.50
2023-03-26T04:26:35.642Z,0.30
2023-03-26T04:29:47.195Z,0.60
2023-03-26T04:32:54.509Z,0.40
2023-03-26T04:36:01.738Z,1.43
2023-03-26T04:39:07.117Z,0.73
2023-03-26T04:42:28.800Z,0.50
2023-03-26T04:45:42.779Z,0.28
2023-03-26T04:48:45.322Z,0.50
2023-03-26T04:51:48.198Z,0.30
2023-03-26T04:55:38.802Z,0.47
2023-03-26T04:58:51.869Z,1.00
2023-03-26T05:01:54.685Z,0.32
2023-03-26T05:04:59.192Z,0.40
2023-03-26T05:08:05.780Z,0.40
2023-03-26T05:11:11.658Z,0.30
2023-03-26T05:14:14.345Z,0.30
2023-03-26T05:17:18.989Z,0.40
2023-03-26T05:20:26.467Z,0.60
2023-03-26T05:23:28.770Z,0.53
2023-03-26T05:26:45.162Z,0.90
2023-03-26T05:29:48.458Z,0.70
2023-03-26T05:32:52.005Z,0.85
2023-03-26T05:36:05.714Z,0.73
2023-03-26T05:39:08.965Z,0.90
2023-03-26T05:42:43.859Z,0.47
2023-03-26T05:46:02.547Z,0.82
2023-03-26T05:49:07.047Z,1.20
2023-03-26T05:52:15.238Z,1.17
2023-03-26T05:55:47.311Z,0.97
2023-03-26T05:59:08.065Z,0.77
2023-03-26T06:02:30.749Z,0.50
2023-03-26T06:05:51.691Z,0.40
2023-03-26T06:09:04.826Z,0.87
2023-03-26T06:12:08.533Z,0.67
2023-03-26T06:15:11.850Z,0.40
2023-03-26T06:18:28.241Z,0.63
2023-03-26T06:21:50.464Z,0.57
2023-03-26T06:24:58.820Z,0.60
2023-03-26T06:28:33.502Z,0.60
2023-03-26T06:31:54.428Z,0.57
2023-03-26T06:35:00.684Z,0.60
2023-03-26T06:38:03.812Z,1.20
2023-03-26T06:41:07.515Z,0.47
2023-03-26T06:44:28.131Z,0.70
2023-03-26T06:47:56.572Z,0.65
2023-03-26T06:51:15.955Z,0.90
2023-03-26T06:54:47.595Z,0.70
2023-03-26T06:58:11.333Z,1.20
2023-03-26T07:01:39.308Z,0.70
2023-03-26T07:05:00.402Z,0.90
2023-03-26T07:08:21.216Z,0.90
2023-03-26T07:11:42.127Z,0.77
2023-03-26T07:14:53.455Z,0.70
2023-03-26T07:18:22.060Z,0.70
2023-03-26T07:21:26.026Z,1.08
2023-03-26T07:24:30.114Z,0.65
2023-03-26T07:28:14.406Z,0.63
2023-03-26T07:31:42.641Z,0.57
2023-03-26T07:35:31.864Z,0.70
2023-03-26T07:39:12.613Z,0.77
2023-03-26T07:43:28.044Z,0.90
2023-03-26T07:46:53.351Z,1.00
2023-03-26T07:49:59.934Z,0.60
2023-03-26T07:53:21.813Z,0.70
2023-03-26T07:57:05.598Z,0.80
2023-03-26T08:00:22.260Z,0.80
2023-03-26T08:03:49.238Z,0.80
2023-03-26T08:07:55.536Z,0.80
2023-03-26T08:11:35.712Z,0.93
2023-03-26T08:15:01.180Z,0.75
2023-03-26T08:18:28.745Z,0.80
2023-03-26T08:21:38.137Z,1.02
2023-03-26T08:24:48.057Z,0.80
2023-03-26T08:28:16.666Z,0.37
2023-03-26T08:31:19.962Z,0.60
2023-03-26T08:34:22.283Z,0.68
2023-03-26T08:37:24.608Z,0.88
2023-03-26T08:40:48.146Z,0.70
2023-03-26T08:44:02.727Z,0.93
2023-03-26T08:47:17.149Z,0.80
2023-03-26T08:50:57.336Z,0.73
2023-03-26T08:54:08.508Z,0.52
2023-03-26T08:57:29.331Z,0.70
2023-03-26T09:01:01.783Z,0.50
2023-03-26T09:04:36.139Z,1.00
2023-03-26T09:07:57.204Z,0.80
2023-03-26T09:11:24.466Z,0.65
2023-03-26T09:14:54.593Z,0.70
2023-03-26T09:18:33.563Z,0.67
2023-03-26T09:21:57.639Z,0.60
2023-03-26T09:25:13.604Z,0.52
2023-03-26T09:28:20.785Z,0.38
2023-03-26T09:31:45.475Z,0.60
2023-03-26T09:35:00.388Z,0.50
2023-03-26T09:38:19.874Z,0.52
2023-03-26T09:41:34.562Z,0.50
2023-03-26T09:44:59.558Z,0.50
2023-03-26T09:48:20.317Z,0.33
2023-03-26T09:51:33.249Z,0.30
2023-03-26T09:54:39.321Z,0.50
2023-03-26T09:58:04.077Z,0.28
2023-03-26T10:01:25.213Z,0.45
2023-03-26T10:04:38.543Z,0.20
2023-03-26T10:08:04.284Z,0.60
2023-03-26T10:11:25.579Z,0.35
2023-03-26T10:14:50.078Z,0.30
2023-03-26T10:18:27.188Z,0.47
2023-03-26T10:21:51.033Z,0.40
2023-03-26T10:25:19.095Z,0.30
2023-03-26T10:28:44.764Z,0.28
2023-03-26T10:32:17.197Z,0.30
2023-03-26T10:35:26.608Z,0.80
2023-03-26T10:38:58.468Z,0.50
2023-03-26T10:42:38.612Z,0.40
2023-03-26T10:45:59.314Z,0.22
2023-03-26T10:49:33.900Z,0.43
2023-03-26T10:52:43.322Z,0.50
2023-03-26T10:55:47.437Z,0.10
2023-03-26T10:58:50.404Z,0.20
2023-03-26T11:02:29.467Z,0.28
2023-03-26T11:05:50.916Z,0.15
2023-03-26T11:08:56.345Z,0.25
2023-03-26T11:12:01.711Z,0.23
2023-03-26T11:15:07.358Z,0.30
2023-03-26T11:18:18.776Z,0.20
2023-03-26T11:21:32.632Z,0.40
2023-03-26T11:25:12.573Z,0.40
2023-03-26T11:28:20.924Z,0.70
2023-03-26T11:31:23.167Z,0.50
2023-03-26T11:34:43.358Z,0.30
2023-03-26T11:37:57.098Z,0.60
2023-03-26T11:41:00.485Z,0.60
2023-03-26T11:44:24.486Z,0.60
2023-03-26T11:47:40.914Z,0.60
2023-03-26T11:50:47.173Z,0.65
2023-03-26T11:53:49.624Z,0.65
2023-03-26T11:57:04.525Z,0.70
2023-03-26T12:00:18.359Z,0.60
2023-03-26T12:03:20.991Z,0.40
2023-03-26T12:06:27.476Z,0.45
2023-03-26T12:09:29.849Z,0.35
2023-03-26T12:12:42.287Z,0.40
2023-03-26T12:15:44.771Z,0.50
2023-03-26T12:18:58.875Z,0.60
2023-03-26T12:22:01.259Z,0.40
2023-03-26T12:25:18.644Z,0.47
2023-03-26T12:28:21.530Z,0.35
2023-03-26T12:31:26.646Z,0.37
2023-03-26T12:34:34.864Z,0.20
2023-03-26T12:37:38.762Z,0.40
2023-03-26T12:40:42.761Z,0.20
2023-03-26T12:43:51.801Z,0.30
2023-03-26T12:47:59.033Z,0.37
2023-03-26T12:51:01.978Z,0.20
2023-03-26T12:54:17.445Z,0.20
2023-03-26T12:57:25.325Z,0.32
2023-03-26T13:00:45.785Z,0.20
2023-03-26T13:04:00.509Z,0.40
2023-03-26T13:07:28.940Z,0.27
2023-03-26T13:10:53.084Z,0.20
2023-03-26T13:13:58.668Z,0.20
2023-03-26T13:17:22.864Z,0.15
2023-03-26T13:20:33.124Z,0.00
2023-03-26T13:23:41.460Z,0.10
2023-03-26T13:27:03.767Z,0.17
2023-03-26T13:30:19.522Z,0.20
2023-03-26T13:33:50.449Z,0.20
2023-03-26T13:37:27.523Z,0.00
2023-03-26T13:41:00.362Z,0.20
2023-03-26T13:44:02.661Z,0.10
2023-03-26T13:47:25.873Z,0.20
2023-03-26T13:50:36.126Z,0.20
2023-03-26T13:53:55.800Z,0.10
2023-03-26T13:57:10.022Z,0.10
2023-03-26T14:00:16.565Z,0.10
2023-03-26T14:03:33.542Z,0.10
2023-03-26T14:06:46.977Z,0.20
2023-03-26T14:10:02.106Z,0.17
2023-03-26T14:13:10.429Z,0.10
2023-03-26T14:16:12.921Z,0.20
2023-03-26T14:19:32.286Z,0.10
2023-03-26T14:23:02.929Z,0.08
2023-03-26T14:26:37.524Z,0.10
2023-03-26T14:30:05.040Z,0.10
2023-03-26T14:33:27.913Z,0.08
2023-03-26T14:36:53.341Z,0.00
2023-03-26T14:40:15.180Z,0.10
2023-03-26T14:44:11.986Z,0.10
2023-03-26T14:47:21.823Z,0.10
2023-03-26T14:50:55.866Z,0.10
2023-03-26T14:54:18.309Z,0.20
2023-03-26T14:57:36.290Z,0.20
2023-03-26T15:00:50.780Z,0.10
2023-03-26T15:04:08.170Z,0.10
2023-03-26T15:07:37.024Z,0.00
2023-03-26T15:10:47.088Z,0.10
2023-03-26T15:14:19.471Z,0.10
2023-03-26T15:17:55.819Z,0.10
2023-03-26T15:21:29.289Z,0.10
2023-03-26T15:24:58.166Z,0.17
2023-03-26T15:28:38.622Z,0.40
2023-03-26T15:32:14.807Z,0.20
2023-03-26T15:35:49.086Z,0.30
2023-03-26T15:39:16.108Z,0.30
2023-03-26T15:42:21.684Z,0.20
2023-03-26T15:45:59.452Z,0.20
2023-03-26T15:49:16.885Z,0.10
2023-03-26T15:52:24.739Z,0.20
2023-03-26T15:55:45.947Z,0.20
2023-03-26T15:58:56.818Z,0.22
2023-03-26T16:02:02.856Z,0.30
2023-03-26T16:05:32.126Z,0.30
2023-03-26T16:08:57.117Z,0.20
2023-03-26T16:12:30.211Z,0.20
2023-03-26T16:15:33.393Z,0.30
2023-03-26T16:19:20.799Z,0.20
2023-03-26T16:22:42.574Z,0.10
2023-03-26T16:26:23.869Z,0.57
2023-03-26T16:29:28.671Z,0.37
2023-03-26T16:32:40.761Z,0.50
2023-03-26T16:36:06.379Z,0.43
2023-03-26T16:39:08.876Z,0.47
2023-03-26T16:42:54.910Z,0.37
2023-03-26T16:46:34.567Z,0.33
2023-03-26T16:50:08.590Z,0.20
2023-03-26T16:53:33.544Z,0.55
2023-03-26T16:57:14.657Z,0.30
2023-03-26T17:00:30.631Z,0.37
2023-03-26T17:03:54.207Z,0.40
2023-03-26T17:07:05.705Z,0.50
2023-03-26T17:10:20.686Z,0.30
2023-03-26T17:13:38.360Z,0.50
2023-03-26T17:16:49.491Z,0.40
2023-03-26T17:19:59.725Z,1.13
2023-03-26T17:23:41.435Z,0.60
2023-03-26T17:27:16.984Z,0.60
2023-03-26T17:30:49.419Z,0.70
2023-03-26T17:33:51.872Z,0.80
2023-03-26T17:36:58.838Z,0.70
2023-03-26T17:40:01.536Z,0.60
2023-03-26T17:43:09.912Z,0.55
2023-03-26T17:46:33.116Z,0.73
2023-03-26T17:49:36.575Z,0.70
2023-03-26T17:52:41.805Z,0.80
2023-03-26T17:55:46.116Z,0.50
2023-03-26T17:58:52.695Z,0.40
2023-03-26T18:01:58.036Z,1.08
2023-03-26T18:05:00.988Z,1.20
2023-03-26T18:08:13.543Z,1.00
2023-03-26T18:11:43.687Z,1.50
2023-03-26T18:15:02.550Z,1.42
2023-03-26T18:18:18.173Z,1.77
2023-03-26T18:21:30.831Z,2.30
2023-03-26T18:24:37.324Z,2.03
2023-03-26T18:27:41.035Z,1.90
2023-03-26T18:30:48.890Z,1.58
2023-03-26T18:33:56.973Z,2.30
2023-03-26T18:37:11.427Z,2.00
2023-03-26T18:40:20.329Z,2.77
2023-03-26T18:43:34.378Z,2.35
2023-03-26T18:46:37.412Z,2.00
2023-03-26T18:49:45.964Z,2.05
2023-03-26T18:52:48.377Z,2.50
2023-03-26T18:55:51.913Z,2.07
2023-03-26T18:58:57.894Z,1.95
2023-03-26T19:02:04.367Z,1.80
2023-03-26T19:05:07.757Z,2.45
2023-03-26T19:08:10.453Z,2.80
2023-03-26T19:11:16.332Z,3.00
2023-03-26T19:14:20.192Z,3.35
2023-03-26T19:17:24.117Z,2.85
2023-03-26T19:20:29.324Z,2.78
2023-03-26T19:23:40.045Z,2.67
2023-03-26T19:26:42.755Z,3.70
2023-03-26T19:29:45.075Z,3.40
2023-03-26T19:32:53.496Z,3.90
2023-03-26T19:36:15.081Z,3.60
2023-03-26T19:39:24.280Z,4.03
2023-03-26T19:42:44.078Z,3.43
2023-03-26T19:45:59.573Z,2.60
2023-03-26T19:49:04.712Z,2.38
2023-03-26T19:52:13.140Z,2.20
2023-03-26T19:55:22.701Z,3.03
2023-03-26T19:58:28.121Z,3.37
2023-03-26T20:01:30.782Z,3.15
2023-03-26T20:04:33.112Z,2.10
2023-03-26T20:07:39.477Z,2.10
2023-03-26T20:10:42.721Z,1.90
2023-03-26T20:13:45.132Z,1.80
2023-03-26T20:16:47.562Z,2.13
2023-03-26T20:19:49.967Z,1.90
2023-03-26T20:22:56.249Z,2.20
2023-03-26T20:25:58.768Z,2.13
2023-03-26T20:29:01.054Z,2.60
2023-03-26T20:32:06.467Z,2.55
2023-03-26T20:35:16.324Z,2.35
2023-03-26T20:38:19.966Z,2.30
2023-03-26T20:41:24.544Z,2.50
2023-03-26T20:44:27.375Z,2.20
2023-03-26T20:47:29.712Z,2.40
2023-03-26T20:50:35.745Z,2.25
2023-03-26T20:53:38.293Z,2.17
2023-03-26T20:56:41.727Z,2.73
2023-03-26T20:59:45.005Z,2.33
2023-03-26T21:02:47.924Z,2.35
2023-03-26T21:05:52.443Z,2.47
2023-03-26T21:08:54.979Z,2.38
2023-03-26T21:12:06.382Z,2.43
2023-03-26T21:15:22.380Z,2.40
2023-03-26T21:18:26.196Z,1.80
2023-03-26T21:21:37.660Z,2.22
2023-03-26T21:24:40.071Z,1.90
2023-03-26T21:27:45.338Z,1.70
2023-03-26T21:30:47.939Z,1.27
2023-03-26T21:33:50.733Z,1.00
2023-03-26T21:36:53.422Z,1.63
2023-03-26T21:39:56.055Z,1.17
2023-03-26T21:42:58.712Z,1.30
2023-03-26T21:46:01.421Z,1.60
2023-03-26T21:49:04.232Z,1.40
2023-03-26T21:52:07.193Z,1.77
2023-03-26T21:55:11.587Z,1.85
2023-03-26T21:58:35.871Z,2.00
2023-03-26T22:01:49.870Z,2.17
2023-03-26T22:04:57.379Z,2.75
2023-03-26T22:08:04.887Z,2.50
2023-03-26T22:11:09.650Z,2.30
2023-03-26T22:14:13.420Z,2.60
2023-03-26T22:17:15.698Z,2.70
2023-03-26T22:20:19.625Z,2.55
2023-03-26T22:23:22.292Z,2.85
2023-03-26T22:26:25.105Z,3.00
2023-03-26T22:29:27.573Z,2.80
2023-03-26T22:32:32.830Z,2.90
2023-03-26T22:35:35.425Z,2.47
2023-03-26T22:38:37.750Z,2.83
2023-03-26T22:41:40.049Z,2.50
2023-03-26T22:44:42.381Z,2.50
2023-03-26T22:47:45.175Z,2.40
2023-03-26T22:50:58.422Z,2.30
2023-03-26T22:54:00.753Z,2.70
2023-03-26T22:57:03.859Z,2.60
2023-03-26T23:00:14.762Z,2.80
2023-03-26T23:03:17.720Z,2.20
2023-03-26T23:06:21.263Z,2.15
2023-03-26T23:09:24.960Z,2.38
2023-03-26T23:12:27.380Z,2.17
2023-03-26T23:15:30.539Z,2.40
2023-03-26T23:18:33.218Z,1.77
2023-03-26T23:21:36.737Z,1.70
2023-03-26T23:24:39.870Z,1.58
2023-03-26T23:27:42.281Z,1.60
2023-03-26T23:30:47.747Z,1.70
2023-03-26T23:33:50.498Z,1.50
2023-03-26T23:36:53.889Z,1.52
2023-03-26T23:39:56.157Z,1.30
2023-03-26T23:42:58.464Z,1.63
2023-03-26T23:46:00.782Z,1.40
2023-03-26T23:49:03.828Z,1.30
2023-03-26T23:52:06.417Z,0.95
2023-03-26T23:55:09.058Z,1.10
2023-03-26T23:58:11.370Z,0.98
